createdAt,value
2022-10-02T00:02:45.734Z,99985.09
2022-10-02T00:05:40.857Z,99970.00
2022-10-02T00:08:37.765Z,99980.16
2022-10-02T00:11:30.914Z,99980.19
2022-10-02T00:14:22.785Z,99976.69
2022-10-02T00:17:13.782Z,99981.63
2022-10-02T00:19:57.261Z,99974.09
2022-10-02T00:22:43.732Z,99970.50
2022-10-02T00:25:39.993Z,99961.34
2022-10-02T00:28:41.705Z,99947.75
2022-10-02T00:31:44.852Z,99955.75
2022-10-02T00:34:45.701Z,99972.59
2022-10-02T00:37:53.741Z,99982.25
2022-10-02T00:40:53.704Z,99967.81
2022-10-02T00:44:04.748Z,99967.84
2022-10-02T00:46:56.837Z,99973.44
2022-10-02T00:49:43.696Z,99979.81
2022-10-02T00:52:58.728Z,99993.47
2022-10-02T00:55:59.734Z,100002.28
2022-10-02T00:59:04.858Z,100029.06
2022-10-02T01:02:09.749Z,100020.28
2022-10-02T01:04:56.700Z,100010.66
2022-10-02T01:07:41.534Z,100018.28
2022-10-02T01:10:28.702Z,100006.66
2022-10-02T01:13:09.552Z,100036.28
2022-10-02T01:16:09.712Z,100029.47
2022-10-02T01:18:51.217Z,100043.88
2022-10-02T01:21:46.670Z,100035.84
2022-10-02T01:24:43.461Z,100042.63
2022-10-02T01:27:30.666Z,100052.66
2022-10-02T01:30:15.818Z,100055.44
2022-10-02T01:33:06.620Z,100041.84
2022-10-02T01:35:47.994Z,100025.03
2022-10-02T01:38:36.617Z,100021.41
2022-10-02T01:41:23.620Z,100031.78
2022-10-02T01:44:15.749Z,100041.41
2022-10-02T01:47:09.904Z,100048.66
2022-10-02T01:50:20.615Z,100062.19
2022-10-02T01:53:29.635Z,100068.97
2022-10-02T01:56:24.740Z,100058.16
2022-10-02T01:59:27.623Z,100048.94
2022-10-02T02:02:25.799Z,100043.72
2022-10-02T02:05:18.618Z,100045.31
2022-10-02T02:08:15.844Z,100016.53
2022-10-02T02:11:12.382Z,100015.75
2022-10-02T02:14:13.754Z,100013.38
2022-10-02T02:17:15.707Z,99994.56
2022-10-02T02:20:10.606Z,99997.75
2022-10-02T02:22:54.567Z,99988.56
2022-10-02T02:25:45.615Z,99973.75
2022-10-02T02:28:42.587Z,99944.19
2022-10-02T02:31:36.635Z,99939.41
2022-10-02T02:34:28.622Z,99907.00
2022-10-02T02:37:16.565Z,99892.19
2022-10-02T02:40:09.542Z,99860.63
2022-10-02T02:43:04.571Z,99848.19
2022-10-02T02:45:52.749Z,99869.81
2022-10-02T02:48:52.567Z,99855.03
2022-10-02T02:51:49.599Z,99836.59
2022-10-02T02:54:36.772Z,99851.00
2022-10-02T02:57:26.551Z,99862.59
2022-10-02T03:00:08.087Z,99882.59
2022-10-02T03:03:02.550Z,99914.94
2022-10-02T03:05:58.575Z,99945.31
2022-10-02T03:26:31.166Z,99957.22
2022-10-02T03:29:25.477Z,99969.63
2022-10-02T03:32:13.182Z,99977.25
2022-10-02T03:35:01.193Z,99970.50
2022-10-02T03:37:48.174Z,99972.13
2022-10-02T03:40:35.181Z,99964.94
2022-10-02T03:43:24.268Z,99964.94
2022-10-02T03:46:11.236Z,99965.38
2022-10-02T03:48:51.265Z,99967.75
2022-10-02T03:51:38.201Z,99980.91
2022-10-02T03:54:34.177Z,99998.50
2022-10-02T03:57:26.294Z,100004.16
2022-10-02T04:00:20.159Z,100005.72
2022-10-02T04:03:05.521Z,100030.88
2022-10-02T04:05:56.173Z,100043.66
2022-10-02T04:08:50.166Z,100049.22
2022-10-02T04:11:50.275Z,100070.44
2022-10-02T04:14:56.186Z,100081.63
2022-10-02T04:17:50.232Z,100075.19
2022-10-02T04:20:50.149Z,100056.84
2022-10-02T04:23:33.267Z,100046.09
2022-10-02T04:26:35.412Z,100029.72
2022-10-02T04:29:47.157Z,100029.72
2022-10-02T04:32:31.169Z,100034.13
2022-10-02T04:35:37.125Z,100028.16
2022-10-02T04:38:47.482Z,100024.94
2022-10-02T04:41:46.150Z,100032.50
2022-10-02T04:44:59.129Z,100045.34
2022-10-02T04:47:58.298Z,100047.78
2022-10-02T04:51:04.115Z,100053.47
2022-10-02T04:53:52.226Z,100058.69
2022-10-02T04:57:08.103Z,100058.31
2022-10-02T04:59:54.229Z,100065.53
2022-10-02T05:02:48.131Z,100081.97
2022-10-02T05:05:57.183Z,100080.00
2022-10-02T05:08:58.117Z,100083.25
2022-10-02T05:11:41.148Z,100081.63
2022-10-02T05:15:12.110Z,100081.28
2022-10-02T05:18:07.094Z,100076.94
2022-10-02T05:21:13.206Z,100068.19
2022-10-02T05:24:24.093Z,100060.97
2022-10-02T05:27:18.533Z,100059.75
2022-10-02T05:30:33.058Z,100061.34
2022-10-02T05:33:36.684Z,100055.72
2022-10-02T05:37:00.054Z,100060.06
2022-10-02T05:40:17.086Z,100049.25
2022-10-02T05:43:09.199Z,100046.09
2022-10-02T05:46:01.078Z,100033.25
2022-10-02T05:49:13.179Z,100027.16
2022-10-02T05:52:12.071Z,100037.88
2022-10-02T05:55:19.142Z,100038.19
2022-10-02T05:58:20.051Z,100029.69
2022-10-02T06:01:19.211Z,100034.09
2022-10-02T06:04:29.233Z,100031.28
2022-10-02T06:07:24.032Z,100025.22
2022-10-02T06:10:13.144Z,100024.03
2022-10-02T06:13:10.049Z,100016.84
2022-10-02T06:16:12.221Z,100010.88
2022-10-02T06:19:05.029Z,100017.31
2022-10-02T06:22:00.115Z,100019.78
2022-10-02T06:25:01.059Z,100006.16
2022-10-02T06:28:14.135Z,100010.97
2022-10-02T06:31:03.186Z,100002.25
2022-10-02T06:33:50.021Z,100000.38
2022-10-02T06:36:53.104Z,100001.22
2022-10-02T06:39:40.017Z,100011.59
2022-10-02T06:42:23.111Z,100006.38
2022-10-02T06:45:28.032Z,100013.94
2022-10-02T06:48:20.478Z,100015.41
2022-10-02T06:51:34.986Z,100026.88
2022-10-02T06:54:41.095Z,100008.84
2022-10-02T06:57:47.983Z,100014.06
2022-10-02T07:00:29.798Z,100011.69
2022-10-02T07:03:48.009Z,100017.69
2022-10-02T07:06:58.968Z,100011.72
2022-10-02T07:10:07.993Z,100011.31
2022-10-02T07:13:18.953Z,99997.78
2022-10-02T07:16:14.808Z,100005.00
2022-10-02T07:19:26.951Z,99995.97
2022-10-02T07:22:48.946Z,100018.41
2022-10-02T07:26:13.918Z,100015.63
2022-10-02T07:29:33.386Z,100011.31
2022-10-02T07:32:45.970Z,100013.78
2022-10-02T07:35:32.903Z,100016.59
2022-10-02T07:39:05.931Z,100023.06
2022-10-02T07:42:06.965Z,100026.19
2022-10-02T07:45:13.958Z,100013.59
2022-10-02T07:48:07.992Z,100023.34
2022-10-02T07:51:33.915Z,100014.50
2022-10-02T07:55:06.914Z,100021.25
2022-10-02T07:58:08.104Z,100026.81
2022-10-02T08:00:57.899Z,100032.53
2022-10-02T08:04:19.893Z,100028.00
2022-10-02T08:07:07.036Z,100026.03
2022-10-02T08:09:57.895Z,100020.09
2022-10-02T08:12:54.873Z,100021.72
2022-10-02T08:15:44.894Z,100023.56
2022-10-02T08:18:40.916Z,100029.63
2022-10-02T08:21:24.697Z,100033.22
2022-10-02T08:24:17.953Z,100015.81
2022-10-02T08:27:13.629Z,100019.59
2022-10-02T08:30:05.905Z,100005.03
2022-10-02T08:32:54.901Z,100018.97
2022-10-02T08:35:52.880Z,100028.84
2022-10-02T08:38:54.891Z,100013.41
2022-10-02T08:41:55.026Z,100035.41
2022-10-02T08:45:15.869Z,100026.34
2022-10-02T08:48:27.335Z,100034.41
2022-10-02T08:51:19.855Z,100053.09
2022-10-02T08:54:27.847Z,100046.69
2022-10-02T08:57:29.408Z,100042.63
2022-10-02T09:00:34.922Z,100049.13
2022-10-02T09:03:33.497Z,100067.63
2022-10-02T09:06:38.309Z,100056.75
2022-10-02T09:09:53.861Z,100067.13
2022-10-02T09:13:04.823Z,100072.88
2022-10-02T09:16:13.883Z,100056.53
2022-10-02T09:19:08.930Z,100073.25
2022-10-02T09:22:05.849Z,100073.19
2022-10-02T09:25:04.917Z,100090.81
2022-10-02T09:28:10.907Z,100083.31
2022-10-02T09:30:57.786Z,100080.69
2022-10-02T09:34:06.215Z,100069.28
2022-10-02T09:37:34.794Z,100070.00
2022-10-02T09:40:33.799Z,100085.50
2022-10-02T09:43:39.830Z,100088.63
2022-10-02T09:47:11.818Z,100086.25
2022-10-02T09:50:14.787Z,100084.31
2022-10-02T09:53:45.793Z,100071.41
2022-10-02T09:56:54.793Z,100086.03
2022-10-02T10:00:00.125Z,100084.81
2022-10-02T10:03:29.766Z,100082.44
2022-10-02T10:06:22.780Z,100083.81
2022-10-02T10:09:14.919Z,100075.19
2022-10-02T10:12:30.803Z,100102.06
2022-10-02T10:15:35.728Z,100099.34
2022-10-02T10:18:34.770Z,100095.84
2022-10-02T10:21:30.170Z,100088.13
2022-10-02T10:24:36.812Z,100096.28
2022-10-02T10:27:47.280Z,100108.19
2022-10-02T10:30:33.748Z,100090.75
2022-10-02T10:33:35.986Z,100118.06
2022-10-02T10:36:46.892Z,100115.22
2022-10-02T10:39:49.774Z,100112.28
2022-10-02T10:43:11.638Z,100125.47
2022-10-02T10:46:25.879Z,100120.94
2022-10-02T10:49:50.787Z,100124.28
2022-10-02T10:53:22.781Z,100124.25
2022-10-02T10:56:25.694Z,100131.50
2022-10-02T10:59:49.793Z,100151.97
2022-10-02T11:03:01.894Z,100155.78
2022-10-02T11:06:25.751Z,100157.47
2022-10-02T11:09:34.735Z,100158.41
2022-10-02T11:12:39.720Z,100166.22
2022-10-02T11:15:29.731Z,100158.06
2022-10-02T11:18:51.828Z,100152.16
2022-10-02T11:21:59.695Z,100156.94
2022-10-02T11:24:55.426Z,100152.75
2022-10-02T11:27:56.739Z,100148.44
2022-10-02T11:30:42.782Z,100140.22
2022-10-02T11:33:58.680Z,100144.78
2022-10-02T11:36:56.802Z,100143.84
2022-10-02T11:40:04.672Z,100147.13
2022-10-02T11:43:13.784Z,100145.06
2022-10-02T11:46:31.679Z,100137.69
2022-10-02T11:49:48.653Z,100154.88
2022-10-02T11:52:48.542Z,100149.41
2022-10-02T11:56:04.666Z,100168.31
2022-10-02T11:59:24.634Z,100163.31
2022-10-02T12:02:22.958Z,100162.31
2022-10-02T12:05:34.663Z,100189.72
2022-10-02T12:08:34.324Z,100176.97
2022-10-02T12:11:42.642Z,100186.16
2022-10-02T12:14:25.772Z,100189.25
2022-10-02T12:17:24.656Z,100183.75
2022-10-02T12:20:23.375Z,100190.31
2022-10-02T12:23:39.660Z,100195.16
2022-10-02T12:26:59.795Z,100192.38
2022-10-02T12:29:57.635Z,100196.59
2022-10-02T12:33:19.632Z,100180.00
2022-10-02T12:36:11.748Z,100202.97
2022-10-02T12:39:25.627Z,100201.53
2022-10-02T12:42:33.725Z,100190.28
2022-10-02T12:45:39.652Z,100205.47
2022-10-02T12:48:57.613Z,100206.34
2022-10-02T12:51:56.442Z,100208.06
2022-10-02T12:54:49.637Z,100207.06
2022-10-02T12:57:52.921Z,100206.56
2022-10-02T13:01:03.631Z,100204.53
2022-10-02T13:04:38.086Z,100208.13
2022-10-02T13:08:02.598Z,100214.78
2022-10-02T13:10:54.617Z,100211.00
2022-10-02T13:14:17.623Z,100216.00
2022-10-02T13:17:12.725Z,100199.66
2022-10-02T13:20:32.562Z,100228.34
2022-10-02T13:23:32.527Z,100218.88
2022-10-02T13:26:37.581Z,100232.09
2022-10-02T13:30:21.569Z,100228.81
2022-10-02T13:33:35.038Z,100231.97
2022-10-02T13:36:43.886Z,100232.03
2022-10-02T13:39:23.687Z,100229.97
2022-10-02T13:42:16.602Z,100242.50
2022-10-02T13:45:09.709Z,100254.63
2022-10-02T13:48:12.559Z,100244.59
2022-10-02T13:51:12.552Z,100257.16
2022-10-02T13:54:11.970Z,100264.78
2022-10-02T13:57:10.543Z,100257.88
2022-10-02T14:00:21.521Z,100274.00
2022-10-02T14:03:29.596Z,100275.59
2022-10-02T14:06:23.880Z,100285.75
2022-10-02T14:09:16.545Z,100289.44
2022-10-02T14:12:34.544Z,100295.84
2022-10-02T14:15:59.619Z,100290.59
2022-10-02T14:18:59.371Z,100287.78
2022-10-02T14:22:20.543Z,100294.59
2022-10-02T14:25:33.503Z,100313.06
2022-10-02T14:28:36.510Z,100313.47
2022-10-02T14:31:26.551Z,100296.63
2022-10-02T14:34:24.636Z,100301.47
2022-10-02T14:37:44.498Z,100306.31
2022-10-02T14:40:26.621Z,100299.88
2022-10-02T14:43:28.486Z,100305.88
2022-10-02T14:46:36.470Z,100302.69
2022-10-02T14:49:43.490Z,100313.59
2022-10-02T14:52:42.597Z,100314.81
2022-10-02T14:56:00.472Z,100305.97
2022-10-02T14:59:06.492Z,100303.16
2022-10-02T15:02:16.460Z,100299.56
2022-10-02T15:05:06.483Z,100296.34
2022-10-02T15:07:53.496Z,100301.97
2022-10-02T15:27:54.812Z,100298.91
2022-10-02T15:30:51.799Z,100302.59
2022-10-02T15:33:48.800Z,100316.63
2022-10-02T15:36:49.374Z,100329.44
2022-10-02T15:39:41.813Z,100329.03
2022-10-02T15:42:30.845Z,100335.44
2022-10-02T15:45:45.804Z,100337.84
2022-10-02T15:48:57.733Z,100334.22
2022-10-02T15:51:59.771Z,100344.63
2022-10-02T15:55:06.877Z,100337.38
2022-10-02T15:58:08.782Z,100348.16
2022-10-02T16:01:35.527Z,100357.34
2022-10-02T16:04:33.250Z,100362.50
2022-10-02T16:07:36.115Z,100358.50
2022-10-02T16:10:26.897Z,100356.09
2022-10-02T16:13:16.717Z,100367.31
2022-10-02T16:16:28.775Z,100361.69
2022-10-02T16:19:14.841Z,100375.72
2022-10-02T16:22:22.756Z,100378.53
2022-10-02T16:25:06.847Z,100384.19
2022-10-02T16:28:11.773Z,100389.84
2022-10-02T16:30:58.763Z,100399.84
2022-10-02T16:33:46.878Z,100406.66
2022-10-02T16:36:40.728Z,100409.50
2022-10-02T16:39:33.778Z,100409.47
2022-10-02T16:42:51.738Z,100423.97
2022-10-02T16:46:10.764Z,100432.41
2022-10-02T16:49:03.046Z,100436.00
2022-10-02T16:52:02.784Z,100439.94
2022-10-02T16:55:19.058Z,100450.81
2022-10-02T16:58:31.745Z,100447.88
2022-10-02T17:02:16.301Z,100449.06
2022-10-02T17:04:56.015Z,100451.78
2022-10-02T17:08:20.713Z,100456.13
2022-10-02T17:11:34.669Z,100453.22
2022-10-02T17:14:21.113Z,100467.59
2022-10-02T17:17:24.648Z,100469.06
2022-10-02T17:20:14.639Z,100471.41
2022-10-02T17:23:43.666Z,100474.59
2022-10-02T17:26:49.652Z,100490.06
2022-10-02T17:29:39.634Z,100486.47
2022-10-02T17:32:46.835Z,100474.28
2022-10-02T17:35:54.625Z,100475.38
2022-10-02T17:38:41.648Z,100493.31
2022-10-02T17:41:57.663Z,100498.38
2022-10-02T17:44:47.610Z,100485.03
2022-10-02T17:47:37.672Z,100487.38
2022-10-02T17:50:30.604Z,100498.50
2022-10-02T17:53:47.661Z,100494.94
2022-10-02T17:56:37.384Z,100495.22
2022-10-02T18:00:04.146Z,100492.81
2022-10-02T18:03:12.617Z,100497.63
2022-10-02T18:06:08.597Z,100484.50
2022-10-02T18:09:07.898Z,100482.56
2022-10-02T18:12:21.626Z,100487.78
2022-10-02T18:15:20.759Z,100482.09
2022-10-02T18:18:19.577Z,100485.94
2022-10-02T18:21:08.027Z,100490.69
2022-10-02T18:24:12.598Z,100485.91
2022-10-02T18:27:21.621Z,100484.09
2022-10-02T18:30:17.607Z,100495.84
2022-10-02T18:33:31.613Z,100497.28
2022-10-02T18:36:25.161Z,100500.72
2022-10-02T18:39:12.620Z,100493.84
2022-10-02T18:42:27.982Z,100497.69
2022-10-02T18:45:13.557Z,100497.53
2022-10-02T18:48:20.006Z,100498.50
2022-10-02T18:51:18.531Z,100500.88
2022-10-02T18:54:11.542Z,100495.53
2022-10-02T18:57:16.844Z,100503.41
2022-10-02T19:00:28.455Z,100493.72
2022-10-02T19:03:23.641Z,100498.81
2022-10-02T19:06:38.555Z,100497.56
2022-10-02T19:09:54.565Z,100505.88
2022-10-02T19:12:35.079Z,100498.63
2022-10-02T19:15:36.646Z,100508.53
2022-10-02T19:18:31.550Z,100506.06
2022-10-02T19:21:28.563Z,100502.38
2022-10-02T19:24:21.550Z,100507.88
2022-10-02T19:27:15.148Z,100513.31
2022-10-02T19:30:02.529Z,100508.97
2022-10-02T19:32:49.494Z,100518.84
2022-10-02T19:35:36.643Z,100521.28
2022-10-02T19:38:35.518Z,100518.38
2022-10-02T19:41:19.730Z,100521.19
2022-10-02T19:44:14.553Z,100519.19
2022-10-02T19:46:57.629Z,100507.91
2022-10-02T19:49:47.512Z,100510.75
2022-10-02T19:53:06.971Z,100498.66
2022-10-02T19:55:58.473Z,100496.56
2022-10-02T19:58:46.576Z,100498.19
2022-10-02T20:01:37.784Z,100505.84
2022-10-02T20:04:26.628Z,100506.91
2022-10-02T20:07:19.484Z,100512.06
2022-10-02T20:10:07.589Z,100519.38
2022-10-02T20:13:37.069Z,100533.41
2022-10-02T20:16:49.499Z,100530.91
2022-10-02T20:19:45.483Z,100534.91
2022-10-02T20:23:12.482Z,100529.81
2022-10-02T20:26:14.489Z,100528.84
2022-10-02T20:29:06.456Z,100537.03
2022-10-02T20:31:54.684Z,100538.56
2022-10-02T20:34:56.464Z,100531.84
2022-10-02T20:37:47.467Z,100535.34
2022-10-02T20:40:36.620Z,100538.56
2022-10-02T20:43:41.494Z,100531.56
2022-10-02T20:46:35.810Z,100518.53
2022-10-02T20:49:59.446Z,100516.94
2022-10-02T20:53:11.703Z,100515.66
2022-10-02T20:56:07.466Z,100523.59
2022-10-02T20:58:56.762Z,100514.53
2022-10-02T21:01:54.445Z,100512.94
2022-10-02T21:05:18.557Z,100510.94
2022-10-02T21:08:35.456Z,100510.78
2022-10-02T21:12:10.405Z,100530.28
2022-10-02T21:15:09.400Z,100522.28
2022-10-02T21:17:56.377Z,100519.44
2022-10-02T21:20:52.359Z,100519.72
2022-10-02T21:23:51.401Z,100516.69
2022-10-02T21:27:04.389Z,100522.56
2022-10-02T21:30:10.887Z,100519.47
2022-10-02T21:33:16.421Z,100531.16
2022-10-02T21:36:19.492Z,100529.16
2022-10-02T21:39:13.366Z,100544.25
2022-10-02T21:42:39.561Z,100536.72
2022-10-02T21:45:49.405Z,100538.94
2022-10-02T21:49:01.430Z,100542.22
2022-10-02T21:51:41.860Z,100532.88
2022-10-02T21:55:05.387Z,100533.69
2022-10-02T21:57:48.777Z,100531.41
2022-10-02T22:00:41.398Z,100526.56
2022-10-02T22:03:37.424Z,100534.47
2022-10-02T22:06:37.419Z,100530.66
2022-10-02T22:09:44.835Z,100543.75
2022-10-02T22:12:57.574Z,100539.94
2022-10-02T22:15:53.053Z,100535.81
2022-10-02T22:18:48.368Z,100538.00
2022-10-02T22:21:47.279Z,100535.38
2022-10-02T22:25:17.302Z,100525.19
2022-10-02T22:28:29.526Z,100526.22
2022-10-02T22:31:18.399Z,100527.97
2022-10-02T22:34:24.355Z,100522.91
2022-10-02T22:37:31.319Z,100522.41
2022-10-02T22:40:27.434Z,100527.88
2022-10-02T22:43:12.305Z,100533.31
2022-10-02T22:46:11.372Z,100539.22
2022-10-02T22:49:06.298Z,100527.06
2022-10-02T22:52:00.406Z,100524.66
2022-10-02T22:54:46.484Z,100523.38
2022-10-02T22:58:09.255Z,100521.66
2022-10-02T23:01:02.427Z,100523.50
2022-10-02T23:04:01.305Z,100511.38
2022-10-02T23:07:24.304Z,100518.34
2022-10-02T23:10:17.113Z,100519.94
2022-10-02T23:13:27.283Z,100517.38
2022-10-02T23:16:15.427Z,100523.50
2022-10-02T23:19:04.283Z,100523.19
2022-10-02T23:22:00.130Z,100527.09
2022-10-02T23:25:02.245Z,100524.56
2022-10-02T23:28:32.351Z,100526.88
2022-10-02T23:31:22.166Z,100526.19
2022-10-02T23:34:37.227Z,100525.38
2022-10-02T23:37:51.207Z,100522.69
2022-10-02T23:41:16.267Z,100522.38
2022-10-02T23:44:33.356Z,100519.81
2022-10-02T23:47:55.230Z,100520.41
2022-10-02T23:50:46.752Z,100522.72
2022-10-02T23:54:05.245Z,100518.88
2022-10-02T23:57:01.124Z,100513.56
